Crossville, TN (38572)

8:26 AM CST on February 11, 2016 (GMT -0600)
Brookstone Dr. | | Change Station
CLOSE
Current Station
Personal Weather Station
Location: Crossville, TN
Elevation: 1841 ft
Nearby Weather Stations

Elev 1841 ft 35.96 °N, 85.00 °W | Updated 9 minutes ago

Overcast
Overcast
25.9 °F
Feels Like 26 °F
N
2.2
Wind Variable Wind from NE

Today
High -- | Low -- °F
--% Chance of Precip.
Yesterday
High -- | Low -- °F
Precip. -- in
Pressure 30.22 in
Visibility 10.0 miles
Clouds Overcast 4200 ft
Windchill 26 °F
Dew Point 21 °F
Humidity 82%
Rainfall 0.00 in
Snow Depth Not available.
6:31 AM 5:16 PM
Waxing Crescent, 12% visible
METAR KCSV 111353Z AUTO 00000KT 10SM OVC042 M04/M07 A3016 RMK AO2 SLP233 T10391072
Pressure 30.22 in
Visibility 10.0 miles
Clouds Overcast 4200 ft
Windchill 26 °F
Dew Point 21 °F
Humidity 82%
Rainfall 0.00 in
Snow Depth Not available.
6:31 AM 5:16 PM
Waxing Crescent, 12% visible
METAR KCSV 111353Z AUTO 00000KT 10SM OVC042 M04/M07 A3016 RMK AO2 SLP233 T10391072

10-Day Weather Forecast

Almanac

Astronomy

Feb. 11, 2016 Rise Set
Actual Time
Civil Twilight
Nautical Twilight
Astronomical Twilight
Moon
Length of Visible Light
Length of Day
Tomorrow will be .
, % of the Moon is Illuminated

Today's Extremes

State Highs State Lows

Community

WunderPhotos

Upload Photos

1,892,048 photos uploaded!

WunderBlog® & News

Nearby

Air Quality

  Air Quality AQ Index Pollutant
Not available.

Snow Depth

Station Depth Elevation

Earthquake Activity

City Distance Mag. Time & Date
Minimum magnitude displayed is 2.5.

Coastal Water Temperatures

Place Temperature

Stations

Nearby Weather Stations

Station Location Temp. Windchill Dew Point Humidity Wind Precip. Elev Updated Type
                   

Watches & Warnings

There are currently no watches in effect.